Time;durP1;ratioP1;P1;durP2;ratioP2;P2;SDS_P1;SDS_P2;PMS_P1;PMS_P2;Temp;Humidity;BMP_temperature;BMP_pressure;BME280_temperature;BME280_humidity;BME280_pressure;Samples;Min_cycle;Max_cycle;Signal;HPM_P1;HPM_P2
2021/07/31 00:00:57;;;;;;;29.53;26.83;;;;;;;18.46;100.00;98301.22;2088979;28;20234;-73
2021/07/31 00:01:58;;;;;;;28.70;26.00;;;;;;;18.43;100.00;98293.88;2081473;28;20455;-73
2021/07/31 00:02:59;;;;;;;29.33;25.70;;;;;;;18.48;100.00;98298.94;2080362;28;20540;-73
2021/07/31 00:04:01;;;;;;;28.20;25.20;;;;;;;18.53;100.00;98300.56;2080579;28;20945;-73
2021/07/31 00:05:02;;;;;;;27.03;24.53;;;;;;;18.45;100.00;98294.28;2081364;28;20690;-73
2021/07/31 00:06:05;;;;;;;28.00;25.30;;;;;;;18.40;100.00;98291.88;2081279;28;20794;-73
2021/07/31 00:07:05;;;;;;;30.43;27.47;;;;;;;18.36;100.00;98299.16;2081326;28;20231;-73
2021/07/31 00:08:07;;;;;;;28.07;25.13;;;;;;;18.31;100.00;98296.78;2081219;28;20529;-72
2021/07/31 00:09:07;;;;;;;29.07;26.13;;;;;;;18.28;100.00;98297.53;2087198;28;20233;-73
2021/07/31 00:10:10;;;;;;;28.93;26.07;;;;;;;18.21;100.00;98289.31;2089395;28;20445;-74
2021/07/31 00:11:12;;;;;;;28.50;25.70;;;;;;;18.21;100.00;98294.72;2089344;28;20250;-73
2021/07/31 00:12:13;;;;;;;30.20;26.40;;;;;;;18.33;100.00;98297.19;2089287;28;20457;-73
2021/07/31 00:13:14;;;;;;;27.93;25.03;;;;;;;18.44;100.00;98308.16;2089414;28;20469;-74
2021/07/31 00:14:15;;;;;;;28.53;25.77;;;;;;;18.44;100.00;98295.41;2088726;28;20446;-73
2021/07/31 00:15:17;;;;;;;28.33;25.73;;;;;;;18.44;100.00;98298.13;2088628;28;20603;-73
2021/07/31 00:16:20;;;;;;;29.20;26.23;;;;;;;18.40;100.00;98297.28;2089418;28;20860;-74
2021/07/31 00:17:20;;;;;;;32.03;26.40;;;;;;;18.34;100.00;98296.06;2089420;28;20477;-74
2021/07/31 00:18:22;;;;;;;29.67;26.50;;;;;;;18.26;100.00;98292.50;2088472;28;20461;-73
2021/07/31 00:19:23;;;;;;;31.30;25.93;;;;;;;18.23;100.00;98292.41;2088336;28;20234;-73
2021/07/31 00:20:25;;;;;;;28.30;25.60;;;;;;;18.24;100.00;98291.28;2089254;28;20465;-73
2021/07/31 00:21:25;;;;;;;29.70;26.40;;;;;;;18.24;100.00;98288.56;2088393;28;20461;-73
2021/07/31 00:22:27;;;;;;;27.93;25.20;;;;;;;18.20;100.00;98283.13;2080252;28;20475;-73
2021/07/31 00:23:28;;;;;;;29.50;26.17;;;;;;;18.21;100.00;98289.31;2088524;28;20625;-74
2021/07/31 00:24:29;;;;;;;30.73;26.73;;;;;;;18.24;100.00;98288.56;2089357;28;20442;-73
2021/07/31 00:25:30;;;;;;;28.67;25.67;;;;;;;18.26;100.00;98289.78;2089228;28;20578;-74
2021/07/31 00:26:32;;;;;;;28.67;26.10;;;;;;;18.26;100.00;98287.09;2089321;28;20489;-73
2021/07/31 00:27:33;;;;;;;29.93;26.40;;;;;;;18.28;100.00;98286.72;2088758;28;20445;-74
2021/07/31 00:28:34;;;;;;;28.80;25.77;;;;;;;18.22;100.00;98280.06;2088513;28;20536;-74
2021/07/31 00:29:35;;;;;;;28.23;25.53;;;;;;;18.34;100.00;98277.16;2089286;28;20226;-74
2021/07/31 00:30:38;;;;;;;28.53;25.73;;;;;;;18.32;100.00;98284.81;2089221;28;20457;-74
2021/07/31 00:31:38;;;;;;;28.73;25.67;;;;;;;18.30;100.00;98281.72;2088854;28;20241;-73
2021/07/31 00:32:40;;;;;;;27.77;25.13;;;;;;;18.30;100.00;98282.50;2088714;28;20469;-73
2021/07/31 00:33:41;;;;;;;28.20;25.23;;;;;;;18.31;100.00;98283.28;2080374;28;20230;-73
2021/07/31 00:34:42;;;;;;;28.30;25.50;;;;;;;18.27;100.00;98287.88;2088672;28;20960;-73
2021/07/31 00:35:43;;;;;;;28.30;25.27;;;;;;;18.21;100.00;98273.91;2080452;28;20707;-73
2021/07/31 00:36:44;;;;;;;28.97;26.07;;;;;;;18.14;100.00;98273.78;2088366;28;21040;-73
2021/07/31 00:37:45;;;;;;;30.13;26.90;;;;;;;18.08;100.00;98276.03;2089321;28;20218;-73
2021/07/31 00:38:47;;;;;;;27.90;24.97;;;;;;;18.17;100.00;98278.47;2089238;28;20519;-73
2021/07/31 00:39:47;;;;;;;29.10;26.37;;;;;;;18.20;100.00;98276.97;2088300;28;20242;-73
2021/07/31 00:40:49;;;;;;;28.33;25.53;;;;;;;18.26;100.00;98280.91;2088349;28;20460;-74
2021/07/31 00:41:50;;;;;;;27.83;25.43;;;;;;;18.24;100.00;98278.59;2080292;28;20223;-73
2021/07/31 00:42:51;;;;;;;28.63;25.93;;;;;;;18.23;100.00;98284.31;2080225;28;20541;-73
2021/07/31 00:43:52;;;;;;;28.07;25.67;;;;;;;18.13;100.00;98276.88;2073506;28;20290;-73
2021/07/31 00:44:54;;;;;;;28.67;25.87;;;;;;;18.08;100.00;98280.66;2082220;28;20486;-73
2021/07/31 00:45:56;;;;;;;28.40;25.33;;;;;;;18.04;100.00;98275.19;2072029;28;20307;-73
2021/07/31 00:46:58;;;;;;;28.57;25.73;;;;;;;18.00;100.00;98274.38;2080028;28;20454;-73
2021/07/31 00:47:59;;;;;;;32.30;26.23;;;;;;;17.97;100.00;98280.50;2080231;28;20521;-73
2021/07/31 00:49:01;;;;;;;28.77;26.13;;;;;;;17.97;100.00;98280.50;2080846;28;20970;-74
2021/07/31 00:50:05;;;;;;;29.77;26.37;;;;;;;18.00;100.00;98273.63;2080860;28;20662;-73
2021/07/31 00:51:07;;;;;;;29.17;26.20;;;;;;;18.00;100.00;98276.31;2079924;28;20450;-73
2021/07/31 00:52:07;;;;;;;29.23;26.30;;;;;;;18.01;100.00;98277.88;2085895;28;20541;-72
2021/07/31 00:53:09;;;;;;;28.03;25.43;;;;;;;18.00;100.00;98274.38;2088249;28;20449;-73
2021/07/31 00:54:10;;;;;;;28.77;26.00;;;;;;;18.03;100.00;98280.97;2080066;28;20234;-74
2021/07/31 00:55:12;;;;;;;28.37;25.57;;;;;;;18.06;100.00;98275.63;2088379;28;20469;-74
2021/07/31 00:56:13;;;;;;;28.67;25.90;;;;;;;18.13;100.00;98274.16;2088995;28;20261;-74
2021/07/31 00:57:15;;;;;;;28.57;25.80;;;;;;;18.12;100.00;98276.09;2088253;28;20433;-74
2021/07/31 00:58:37;;;;;;;28.43;25.63;;;;;;;18.19;100.00;98278.13;2081872;28;20273;-73
2021/07/31 00:59:40;;;;;;;27.93;25.27;;;;;;;18.27;100.00;98271.66;2086287;28;20465;-73
2021/07/31 01:00:43;;;;;;;28.33;25.33;;;;;;;18.29;100.00;98278.25;2088194;28;20461;-73
2021/07/31 01:01:46;;;;;;;28.90;26.13;;;;;;;18.43;100.00;98277.66;2088220;28;21005;-73
2021/07/31 01:02:47;;;;;;;29.23;26.33;;;;;;;18.43;100.00;98280.38;2088322;28;20457;-74
2021/07/31 01:03:48;;;;;;;27.73;25.27;;;;;;;18.41;100.00;98269.13;2088170;28;20571;-74
2021/07/31 01:04:50;;;;;;;28.73;26.03;;;;;;;18.42;100.00;98276.13;2088224;28;20469;-73
2021/07/31 01:05:51;;;;;;;28.53;25.93;;;;;;;18.38;100.00;98274.50;2088255;28;20835;-73
2021/07/31 01:06:53;;;;;;;29.80;26.67;;;;;;;18.35;100.00;98276.00;2079497;28;20450;-73
2021/07/31 01:07:53;;;;;;;29.30;26.10;;;;;;;18.34;100.00;98271.75;2088163;28;20222;-74
2021/07/31 01:08:56;;;;;;;27.80;25.17;;;;;;;18.28;100.00;98274.00;2088193;28;20457;-73
2021/07/31 01:09:58;;;;;;;28.23;25.70;;;;;;;18.21;100.00;98278.50;2088142;28;20943;-73
2021/07/31 01:11:01;;;;;;;27.87;24.93;;;;;;;18.14;100.00;98275.72;2088070;28;20461;-74
2021/07/31 01:12:04;;;;;;;28.70;26.00;;;;;;;18.10;100.00;98288.41;2088212;28;20449;-74
2021/07/31 01:13:06;;;;;;;34.33;25.67;;;;;;;18.03;100.00;98286.38;2080101;28;20446;-74
2021/07/31 01:14:07;;;;;;;29.23;25.90;;;;;;;17.97;100.00;98285.88;2079767;28;20477;-74
2021/07/31 01:15:10;;;;;;;27.13;24.53;;;;;;;18.00;100.00;98277.09;2079856;28;20446;-74
2021/07/31 01:16:11;;;;;;;27.67;25.00;;;;;;;18.11;100.00;98276.44;2079957;28;20458;-75
2021/07/31 01:17:17;;;;;;;28.07;25.57;;;;;;;18.18;100.00;98276.56;2088186;28;20951;-74
2021/07/31 01:18:19;;;;;;;28.57;25.93;;;;;;;18.35;100.00;98278.72;2088440;28;20449;-73
2021/07/31 01:19:21;;;;;;;28.93;25.90;;;;;;;18.28;100.00;98278.63;2079970;28;20493;-74
2021/07/31 01:20:23;;;;;;;28.23;25.50;;;;;;;18.27;100.00;98274.38;2087741;28;20837;-72
2021/07/31 01:21:36;;;;;;;28.20;25.43;;;;;;;18.30;100.00;98277.09;2081040;28;20447;-73
2021/07/31 01:22:39;;;;;;;27.43;24.73;;;;;;;18.31;100.00;98275.94;2087908;28;20490;-74
2021/07/31 01:23:45;;;;;;;28.63;25.93;;;;;;;18.25;100.00;98271.25;2088286;28;20533;-74
2021/07/31 01:24:47;;;;;;;28.43;25.77;;;;;;;18.21;100.00;98267.72;2088162;28;20457;-74
2021/07/31 01:25:50;;;;;;;28.97;26.27;;;;;;;18.07;100.00;98263.69;2088099;28;20449;-74
2021/07/31 01:26:51;;;;;;;28.53;25.83;;;;;;;18.02;100.00;98274.03;2080104;28;20863;-74
2021/07/31 01:27:53;;;;;;;28.93;25.83;;;;;;;17.95;100.00;98273.91;2087555;28;20461;-73
2021/07/31 01:28:54;;;;;;;28.40;25.73;;;;;;;17.90;100.00;98272.31;2087960;28;20520;-74
2021/07/31 01:29:55;;;;;;;28.63;26.13;;;;;;;17.90;100.00;98272.31;2079719;28;20465;-73
2021/07/31 01:30:56;;;;;;;29.27;26.47;;;;;;;17.92;100.00;98266.56;2088205;28;20231;-74
2021/07/31 01:31:57;;;;;;;29.53;26.77;;;;;;;17.89;100.00;98273.44;2088762;28;20464;-74
2021/07/31 01:32:58;;;;;;;28.47;25.97;;;;;;;17.86;100.00;98268.00;2088714;28;20571;-74
2021/07/31 01:34:00;;;;;;;28.90;26.00;;;;;;;17.85;100.00;98258.34;2087972;28;20526;-74
2021/07/31 01:35:01;;;;;;;28.97;26.17;;;;;;;17.99;100.00;98270.13;2079870;28;20314;-74
2021/07/31 01:36:06;;;;;;;28.60;25.90;;;;;;;18.16;100.00;98263.44;2088092;28;20449;-74
2021/07/31 01:37:14;;;;;;;27.80;25.40;;;;;;;18.08;100.00;98259.06;2087423;28;20464;-74
2021/07/31 01:38:16;;;;;;;28.70;25.90;;;;;;;18.12;100.00;98259.88;2079890;28;20446;-74
2021/07/31 01:39:18;;;;;;;29.67;26.57;;;;;;;18.13;100.00;98258.75;2079785;28;20871;-74
2021/07/31 01:40:20;;;;;;;28.23;25.33;;;;;;;18.22;100.00;98261.16;2079233;28;20466;-74
2021/07/31 01:41:21;;;;;;;27.90;25.03;;;;;;;18.34;100.00;98258.25;2079877;28;20474;-75
2021/07/31 01:42:22;;;;;;;28.27;25.40;;;;;;;18.27;100.00;98255.47;2087498;28;21053;-73
2021/07/31 01:43:23;;;;;;;28.07;25.57;;;;;;;18.15;100.00;98255.66;2088633;28;20226;-73
2021/07/31 01:44:25;;;;;;;31.77;26.13;;;;;;;18.01;100.00;98248.94;2088721;28;20468;-73
2021/07/31 01:45:28;;;;;;;28.90;26.23;;;;;;;17.91;100.00;98251.50;2088732;28;20305;-74
2021/07/31 01:46:31;;;;;;;29.07;26.07;;;;;;;17.82;100.00;98256.38;2088730;28;20813;-74
2021/07/31 01:47:32;;;;;;;29.30;26.77;;;;;;;17.73;100.00;98252.03;2088237;28;20453;-74
2021/07/31 01:48:35;;;;;;;28.43;25.70;;;;;;;17.69;100.00;98247.66;2088025;28;20556;-74
2021/07/31 01:49:39;;;;;;;29.70;26.83;;;;;;;17.71;100.00;98250.81;2087677;28;20835;-74
2021/07/31 01:50:44;;;;;;;30.03;27.10;;;;;;;17.67;100.00;98248.03;2088723;28;20479;-74
2021/07/31 01:51:48;;;;;;;29.47;26.53;;;;;;;17.65;100.00;98253.03;2087907;28;20450;-74
2021/07/31 01:52:50;;;;;;;28.90;26.10;;;;;;;17.61;100.00;98254.09;2079656;28;21003;-74
2021/07/31 01:53:52;;;;;;;28.90;25.90;;;;;;;17.60;100.00;98255.25;2079875;28;20937;-74
2021/07/31 01:54:53;;;;;;;28.33;25.83;;;;;;;17.62;100.00;98255.66;2073016;28;20454;-73
2021/07/31 01:55:54;;;;;;;28.93;26.07;;;;;;;17.60;100.00;98252.53;2081838;28;20549;-73
2021/07/31 01:56:56;;;;;;;29.20;26.30;;;;;;;17.65;100.00;98260.34;2079703;28;20268;-74
2021/07/31 01:58:06;;;;;;;28.87;25.97;;;;;;;17.61;100.00;98259.50;2072722;28;20466;-74
2021/07/31 01:59:18;;;;;;;29.47;26.47;;;;;;;17.57;100.00;98261.38;2087289;28;20457;-74
2021/07/31 02:00:20;;;;;;;30.23;26.77;;;;;;;17.52;100.00;98257.81;2088067;28;20820;-74
2021/07/31 02:01:33;;;;;;;29.40;26.37;;;;;;;17.56;100.00;98257.13;2076982;28;20472;-74
2021/07/31 02:02:37;;;;;;;29.33;26.33;;;;;;;17.52;100.00;98251.66;2071250;28;20455;-74
2021/07/31 02:03:37;;;;;;;30.30;26.57;;;;;;;17.56;100.00;98254.41;2073131;28;20516;-73
2021/07/31 02:04:59;;;;;;;29.33;26.57;;;;;;;17.53;100.00;98245.88;2086424;28;20456;-73
2021/07/31 02:06:06;;;;;;;29.37;26.33;;;;;;;17.49;100.00;98250.47;2087830;28;20465;-73
2021/07/31 02:07:09;;;;;;;29.00;26.10;;;;;;;17.49;100.00;98250.47;2079380;28;20465;-73
2021/07/31 02:08:11;;;;;;;29.57;26.87;;;;;;;17.51;100.00;98253.56;2087891;28;20465;-73
2021/07/31 02:09:26;;;;;;;29.10;25.33;;;;;;;17.51;100.00;98250.88;2087378;28;20461;-73
2021/07/31 02:10:27;;;;;;;28.70;25.80;;;;;;;17.55;100.00;98242.03;2079512;28;20596;-73
2021/07/31 02:11:31;;;;;;;28.87;26.30;;;;;;;17.55;100.00;98239.34;2087870;28;20452;-73
2021/07/31 02:12:36;;;;;;;29.47;26.33;;;;;;;17.53;100.00;98239.72;2087978;28;20465;-73
2021/07/31 02:13:44;;;;;;;30.17;26.90;;;;;;;17.54;100.00;98235.88;2088284;28;20449;-73
2021/07/31 02:14:47;;;;;;;28.87;26.07;;;;;;;17.53;100.00;98239.72;2087785;28;20457;-73
2021/07/31 02:15:51;;;;;;;29.30;26.70;;;;;;;17.49;100.00;98223.50;2079676;28;20851;-73
2021/07/31 02:16:59;;;;;;;29.30;26.47;;;;;;;17.44;100.00;98223.78;2074125;28;20807;-73
2021/07/31 02:18:01;;;;;;;28.63;25.93;;;;;;;17.41;100.00;98218.34;2072261;28;20494;-73
2021/07/31 02:19:02;;;;;;;29.37;26.57;;;;;;;17.37;100.00;98220.19;2071537;28;20629;-73
2021/07/31 02:20:14;;;;;;;29.50;26.63;;;;;;;17.36;100.00;98216.72;2080618;28;20439;-73
2021/07/31 02:21:42;;;;;;;28.37;25.90;;;;;;;17.34;100.00;98227.09;2080677;28;20462;-73
2021/07/31 02:23:03;;;;;;;29.73;26.53;;;;;;;17.28;100.00;98225.06;2078355;28;20454;-73
2021/07/31 02:24:25;;;;;;;29.47;26.23;;;;;;;17.23;100.00;98218.84;2081875;28;20466;-73
2021/07/31 02:25:44;;;;;;;29.87;26.87;;;;;;;17.22;100.00;98219.22;2080859;28;20454;-73
2021/07/31 02:27:04;;;;;;;29.80;27.10;;;;;;;17.20;100.00;98214.19;2080481;28;20938;-74
2021/07/31 02:28:15;;;;;;;29.90;26.77;;;;;;;17.17;100.00;98214.09;2086579;28;20468;-73
2021/07/31 02:29:17;;;;;;;29.13;26.47;;;;;;;17.23;100.00;98215.38;2087754;28;20445;-74
2021/07/31 02:30:21;;;;;;;29.40;26.30;;;;;;;17.20;100.00;98222.25;2087768;28;20275;-73
2021/07/31 02:31:23;;;;;;;29.03;26.17;;;;;;;17.21;100.00;98217.66;2087330;28;20536;-73
2021/07/31 02:32:24;;;;;;;29.37;26.67;;;;;;;17.20;100.00;98216.88;2079396;28;20451;-74
2021/07/31 02:33:27;;;;;;;27.60;25.13;;;;;;;17.23;100.00;98220.75;2087721;28;20783;-73
2021/07/31 02:34:32;;;;;;;28.23;25.73;;;;;;;17.48;100.00;98223.84;2087798;28;21000;-74
2021/07/31 02:35:34;;;;;;;29.37;26.50;;;;;;;17.45;100.00;98219.94;2087747;28;20512;-74
2021/07/31 02:37:04;;;;;;;28.77;26.13;;;;;;;17.59;100.00;98226.72;2086975;28;21013;-74
2021/07/31 02:38:11;;;;;;;28.07;25.43;;;;;;;17.69;100.00;98209.91;2087589;28;21118;-73
2021/07/31 02:39:11;;;;;;;28.67;25.70;;;;;;;17.83;100.00;98212.84;2087878;28;20500;-74
2021/07/31 02:40:14;;;;;;;28.87;26.37;;;;;;;17.86;100.00;98206.69;2079682;28;20458;-74
2021/07/31 02:41:17;;;;;;;28.90;26.10;;;;;;;17.73;100.00;98208.06;2087613;28;20279;-73
2021/07/31 02:42:20;;;;;;;28.30;25.60;;;;;;;17.60;100.00;98206.69;2079489;28;20838;-74
2021/07/31 02:43:22;;;;;;;28.57;25.83;;;;;;;17.51;100.00;98215.81;2087450;28;20445;-73
2021/07/31 02:44:23;;;;;;;28.00;25.27;;;;;;;17.42;100.00;98211.81;2088571;28;20481;-74
2021/07/31 02:45:26;;;;;;;28.23;25.53;;;;;;;17.36;100.00;98216.72;2087802;28;20276;-74
2021/07/31 02:46:35;;;;;;;28.70;25.93;;;;;;;17.35;100.00;98217.88;2087834;28;20868;-73
2021/07/31 02:47:36;;;;;;;28.80;25.90;;;;;;;17.33;100.00;98208.59;2088530;28;20963;-74
2021/07/31 02:48:38;;;;;;;28.43;25.83;;;;;;;17.31;100.00;98221.66;2087361;28;20850;-73
2021/07/31 02:49:39;;;;;;;28.60;25.60;;;;;;;17.25;100.00;98221.16;2087811;28;20258;-73
2021/07/31 02:50:41;;;;;;;27.73;25.23;;;;;;;17.20;100.00;98216.88;2087633;28;20836;-73
2021/07/31 02:51:54;;;;;;;28.43;25.53;;;;;;;17.17;100.00;98214.88;2080699;28;20445;-73
2021/07/31 02:53:03;;;;;;;28.80;26.10;;;;;;;17.16;100.00;98224.09;2080478;28;20527;-74
2021/07/31 02:54:04;;;;;;;29.80;26.47;;;;;;;17.15;100.00;98219.09;2087842;28;20449;-74
2021/07/31 02:55:09;;;;;;;29.17;26.13;;;;;;;17.15;100.00;98219.09;2087226;28;20457;-73
2021/07/31 02:56:11;;;;;;;29.60;26.77;;;;;;;17.17;100.00;98222.19;2079871;28;21004;-73
2021/07/31 02:57:13;;;;;;;31.00;27.83;;;;;;;17.15;100.00;98219.84;2087888;28;20465;-73
2021/07/31 02:58:15;;;;;;;29.83;26.97;;;;;;;17.15;100.00;98214.47;2079637;28;20450;-74
2021/07/31 02:59:17;;;;;;;30.23;27.30;;;;;;;17.15;100.00;98219.09;2087814;28;20450;-73
2021/07/31 03:00:18;;;;;;;29.27;26.57;;;;;;;17.18;100.00;98221.03;2087590;28;20469;-73
2021/07/31 03:01:20;;;;;;;29.57;26.87;;;;;;;17.16;100.00;98224.09;2079393;28;20462;-74
2021/07/31 03:02:24;;;;;;;29.87;26.87;;;;;;;17.16;100.00;98216.03;2087214;28;20491;-73
2021/07/31 03:03:28;;;;;;;30.43;27.37;;;;;;;17.15;100.00;98219.09;2079799;28;20473;-74
2021/07/31 03:04:29;;;;;;;29.53;26.67;;;;;;;17.14;100.00;98217.53;2087503;28;20541;-73
2021/07/31 03:05:42;;;;;;;29.10;26.47;;;;;;;17.20;100.00;98226.84;2078477;28;21252;-73
2021/07/31 03:06:43;;;;;;;29.50;26.80;;;;;;;17.20;100.00;98222.25;2079456;28;21008;-73
2021/07/31 03:07:48;;;;;;;30.50;27.83;;;;;;;17.20;100.00;98222.25;2079827;28;20450;-74
2021/07/31 03:08:49;;;;;;;30.90;28.10;;;;;;;17.23;100.00;98231.53;2087583;28;20484;-74
2021/07/31 03:09:52;;;;;;;31.00;28.10;;;;;;;17.23;100.00;98226.16;2079444;28;20980;-74
2021/07/31 03:10:55;;;;;;;29.90;27.03;;;;;;;17.22;100.00;98222.69;2087309;28;20943;-74
2021/07/31 03:11:58;;;;;;;29.73;26.83;;;;;;;17.26;100.00;98222.72;2087501;28;20538;-73
2021/07/31 03:12:59;;;;;;;29.40;26.60;;;;;;;17.25;100.00;98223.88;2079743;28;20777;-74
2021/07/31 03:14:00;;;;;;;27.90;25.30;;;;;;;17.30;100.00;98220.88;2087749;28;20557;-74
2021/07/31 03:15:06;;;;;;;28.53;25.97;;;;;;;17.30;100.00;98215.50;2088866;28;20225;-73
2021/07/31 03:16:09;;;;;;;28.70;25.73;;;;;;;17.28;100.00;98215.03;2080486;28;20528;-73
2021/07/31 03:17:12;;;;;;;29.43;26.53;;;;;;;17.24;100.00;98214.22;2088991;28;20450;-73
2021/07/31 03:18:14;;;;;;;29.40;26.27;;;;;;;17.24;100.00;98209.59;2081122;28;20450;-73
2021/07/31 03:19:14;;;;;;;28.70;25.50;;;;;;;17.25;100.00;98215.78;2080826;28;20223;-73
2021/07/31 03:20:22;;;;;;;27.40;24.83;;;;;;;17.22;100.00;98219.22;2081623;28;20943;-73
2021/07/31 03:21:28;;;;;;;28.93;26.00;;;;;;;17.21;100.00;98213.03;2081146;28;20550;-73
2021/07/31 03:22:39;;;;;;;28.27;25.37;;;;;;;17.18;100.00;98207.56;2081689;28;20478;-73
2021/07/31 03:23:41;;;;;;;28.53;25.70;;;;;;;17.17;100.00;98212.19;2081215;28;20461;-73
2021/07/31 03:24:43;;;;;;;28.23;25.50;;;;;;;17.15;100.00;98209.06;2089250;28;20472;-73
2021/07/31 03:25:45;;;;;;;28.53;25.53;;;;;;;17.12;100.00;98209.03;2089872;28;20666;-73
2021/07/31 03:26:46;;;;;;;27.93;25.13;;;;;;;17.13;100.00;98211.34;2089900;28;20452;-73
2021/07/31 03:27:56;;;;;;;28.37;25.70;;;;;;;17.16;100.00;98215.25;2088768;28;20514;-72
2021/07/31 03:29:20;;;;;;;28.23;25.53;;;;;;;17.16;100.00;98216.03;2089071;28;20461;-73
2021/07/31 03:30:21;;;;;;;28.03;25.13;;;;;;;17.21;100.00;98217.66;2088583;28;20449;-72
2021/07/31 03:31:32;;;;;;;29.20;26.20;;;;;;;17.23;100.00;98215.38;2081908;28;20458;-73
2021/07/31 03:32:35;;;;;;;28.43;25.57;;;;;;;17.27;100.00;98220.81;2081039;28;20462;-73
2021/07/31 03:33:37;;;;;;;28.93;25.80;;;;;;;17.32;100.00;98220.50;2080496;28;20451;-72
2021/07/31 03:34:38;;;;;;;32.03;26.57;;;;;;;17.35;100.00;98217.09;2088925;28;20504;-73
2021/07/31 03:35:41;;;;;;;29.67;26.27;;;;;;;17.35;100.00;98214.38;2088975;28;20457;-73
2021/07/31 03:37:01;;;;;;;28.63;25.37;;;;;;;17.41;100.00;98216.44;2081807;28;20686;-73
2021/07/31 03:38:04;;;;;;;28.43;25.60;;;;;;;17.41;100.00;98216.44;2080580;28;20509;-73
2021/07/31 03:39:05;;;;;;;29.13;25.77;;;;;;;17.44;100.00;98215.69;2080796;28;20461;-73
2021/07/31 03:40:10;;;;;;;27.83;25.00;;;;;;;17.47;100.00;98215.00;2086853;28;20449;-73
2021/07/31 03:41:12;;;;;;;28.97;26.17;;;;;;;17.46;100.00;98218.84;2080573;28;20470;-73
2021/07/31 03:42:21;;;;;;;28.87;25.90;;;;;;;17.50;100.00;98225.03;2081814;28;20454;-73
2021/07/31 03:43:26;;;;;;;28.43;25.53;;;;;;;17.53;100.00;98218.91;2088507;28;21019;-73
2021/07/31 03:44:27;;;;;;;28.67;25.50;;;;;;;17.57;100.00;98229.00;2080996;28;20526;-73
2021/07/31 03:45:30;;;;;;;29.40;26.53;;;;;;;17.59;100.00;98215.91;2080727;28;20505;-73
2021/07/31 03:46:32;;;;;;;28.90;25.90;;;;;;;17.64;100.00;98221.78;2080870;28;20470;-73
2021/07/31 03:47:33;;;;;;;28.70;25.83;;;;;;;17.64;100.00;98223.72;2080694;28;20450;-73
2021/07/31 03:48:34;;;;;;;29.07;25.97;;;;;;;17.63;100.00;98220.22;2088914;28;20815;-72
2021/07/31 03:49:37;;;;;;;28.73;25.47;;;;;;;17.63;100.00;98220.22;2080688;28;20873;-73
2021/07/31 03:50:39;;;;;;;29.03;25.93;;;;;;;17.67;100.00;98217.59;2080295;28;20469;-72
2021/07/31 03:51:41;;;;;;;28.23;25.47;;;;;;;17.70;100.00;98222.28;2088769;28;20548;-73
2021/07/31 03:52:42;;;;;;;30.97;26.27;;;;;;;17.70;100.00;98224.97;2088847;28;20449;-72
2021/07/31 03:53:44;;;;;;;28.87;26.10;;;;;;;17.73;100.00;98210.78;2088641;28;20456;-72
2021/07/31 03:54:46;;;;;;;29.17;26.27;;;;;;;17.74;100.00;98210.41;2088925;28;20829;-73
2021/07/31 03:55:48;;;;;;;27.73;24.80;;;;;;;17.75;100.00;98214.66;2088775;28;20465;-72
2021/07/31 03:56:49;;;;;;;28.20;25.27;;;;;;;17.80;100.00;98218.94;2088987;28;20720;-72
2021/07/31 03:58:02;;;;;;;32.83;25.63;;;;;;;17.86;100.00;98209.41;2088472;28;20856;-73
2021/07/31 03:59:04;;;;;;;28.80;25.60;;;;;;;17.87;100.00;98210.97;2088927;28;20445;-73
2021/07/31 04:00:07;;;;;;;29.50;26.03;;;;;;;17.87;100.00;98210.19;2089436;28;20452;-72
2021/07/31 04:01:20;;;;;;;28.93;26.13;;;;;;;17.91;100.00;98211.03;2088920;28;20511;-72
2021/07/31 04:02:22;;;;;;;28.27;25.23;;;;;;;17.90;100.00;98204.84;2088398;28;20503;-72
2021/07/31 04:03:23;;;;;;;28.63;25.77;;;;;;;17.95;100.00;98209.13;2080481;28;20952;-73
2021/07/31 04:04:28;;;;;;;29.53;26.37;;;;;;;17.94;100.00;98205.66;2080858;28;20808;-72
2021/07/31 04:05:29;;;;;;;27.43;24.80;;;;;;;17.98;100.00;98203.00;2080665;28;20543;-72
2021/07/31 04:06:49;;;;;;;30.50;26.20;;;;;;;18.00;100.00;98209.59;2088695;28;20927;-72
2021/07/31 04:07:50;;;;;;;27.83;25.13;;;;;;;18.02;100.00;98207.31;2089428;28;21008;-72
2021/07/31 04:09:10;;;;;;;28.07;25.13;;;;;;;18.06;100.00;98208.13;2082321;28;20454;-72
2021/07/31 04:10:29;;;;;;;29.17;25.83;;;;;;;18.12;100.00;98207.81;2081808;28;20790;-73
2021/07/31 04:12:06;;;;;;;26.97;24.33;;;;;;;18.21;100.00;98205.63;2088617;28;20454;-73
2021/07/31 04:13:43;;;;;;;27.80;24.90;;;;;;;18.27;100.00;98201.44;2088526;28;20462;-73
2021/07/31 04:14:50;;;;;;;27.53;24.63;;;;;;;18.28;100.00;98205.69;2089522;28;20457;-73
2021/07/31 04:15:52;;;;;;;28.03;25.27;;;;;;;18.28;100.00;98200.31;2088224;28;21013;-72
2021/07/31 04:16:53;;;;;;;29.57;24.87;;;;;;;18.29;100.00;98207.25;2080319;28;20465;-72
2021/07/31 04:17:55;;;;;;;28.33;25.50;;;;;;;18.30;100.00;98195.31;2088652;28;20445;-72
2021/07/31 04:18:56;;;;;;;27.83;24.83;;;;;;;18.31;100.00;98204.97;2088637;28;20230;-73
2021/07/31 04:19:58;;;;;;;29.70;25.23;;;;;;;18.32;100.00;98199.19;2088659;28;20446;-73
2021/07/31 04:21:00;;;;;;;28.07;25.07;;;;;;;18.33;100.00;98211.56;2089394;28;20268;-73
2021/07/31 04:22:02;;;;;;;28.03;25.23;;;;;;;18.37;100.00;98208.91;2089205;28;20460;-73
2021/07/31 04:23:09;;;;;;;28.67;25.77;;;;;;;18.38;100.00;98207.75;2088162;28;20473;-73
2021/07/31 04:24:21;;;;;;;29.10;26.00;;;;;;;18.39;100.00;98209.31;2081821;28;20462;-73
2021/07/31 04:25:23;;;;;;;27.97;25.47;;;;;;;18.40;100.00;98210.06;2087842;28;20469;-73
2021/07/31 04:26:23;;;;;;;29.40;26.57;;;;;;;18.41;100.00;98214.31;2089307;28;20583;-73
2021/07/31 04:27:25;;;;;;;28.33;25.60;;;;;;;18.42;100.00;98213.97;2088369;28;20449;-73
2021/07/31 04:28:26;;;;;;;30.33;26.77;;;;;;;18.43;100.00;98215.53;2088592;28;20233;-73
2021/07/31 04:29:27;;;;;;;27.40;24.87;;;;;;;18.43;100.00;98204.72;2088917;28;20457;-73
2021/07/31 04:30:31;;;;;;;29.20;26.20;;;;;;;18.46;100.00;98216.72;2088632;28;20219;-73
2021/07/31 04:31:32;;;;;;;28.17;25.50;;;;;;;18.47;100.00;98210.94;2088693;28;20460;-73
2021/07/31 04:32:33;;;;;;;29.27;25.80;;;;;;;18.49;100.00;98221.38;2088534;28;20933;-73
2021/07/31 04:33:35;;;;;;;28.33;25.53;;;;;;;18.48;100.00;98215.19;2089302;28;20452;-73
2021/07/31 04:34:36;;;;;;;29.80;25.80;;;;;;;18.49;100.00;98215.97;2089418;28;20230;-73
2021/07/31 04:35:38;;;;;;;29.53;26.60;;;;;;;18.49;100.00;98214.03;2089232;28;20529;-74
2021/07/31 04:36:38;;;;;;;27.60;25.00;;;;;;;18.51;100.00;98219.09;2088676;28;20246;-73
2021/07/31 04:37:40;;;;;;;29.07;26.17;;;;;;;18.54;100.00;98219.13;2088649;28;20472;-73
2021/07/31 04:38:41;;;;;;;28.03;25.30;;;;;;;18.53;100.00;98214.09;2080260;28;20700;-73
2021/07/31 04:39:42;;;;;;;28.03;24.90;;;;;;;18.53;100.00;98217.56;2088415;28;20876;-73
2021/07/31 04:40:43;;;;;;;28.70;25.77;;;;;;;18.54;100.00;98212.94;2089151;28;20234;-74
2021/07/31 04:41:45;;;;;;;28.80;25.77;;;;;;;18.57;100.00;98212.19;2089177;28;20453;-74
2021/07/31 04:42:45;;;;;;;27.77;25.07;;;;;;;18.57;100.00;98212.19;2089156;28;20465;-73
2021/07/31 04:43:47;;;;;;;28.20;25.43;;;;;;;18.59;100.00;98213.41;2089196;28;21422;-74
2021/07/31 04:44:48;;;;;;;28.40;25.50;;;;;;;18.63;100.00;98211.50;2089175;28;20215;-73
2021/07/31 04:45:51;;;;;;;30.93;26.77;;;;;;;18.68;100.00;98215.84;2089092;28;20456;-74
2021/07/31 04:46:51;;;;;;;28.33;25.40;;;;;;;18.73;100.00;98214.72;2086733;28;20221;-72
2021/07/31 04:47:53;;;;;;;28.63;25.83;;;;;;;18.78;100.00;98227.91;2089135;28;20455;-72
2021/07/31 04:48:54;;;;;;;28.10;25.40;;;;;;;18.80;100.00;98222.91;2088198;28;20233;-74
2021/07/31 04:49:55;;;;;;;28.80;25.83;;;;;;;18.87;100.00;98225.69;2088253;28;20544;-73
2021/07/31 04:50:57;;;;;;;29.23;26.17;;;;;;;18.92;100.00;98226.13;2088474;28;20230;-74